Humidity-temperature Sensor

Selected Measurement Type: Relative Humidity

 
Relative Humidity [%]     6 entries per hour
Showing data from 12/20/2016 (00:00:00 Z) to 12/19/2016 (00:01:00 Z)
Previous Next [ Day | 3-Days | 7-Days ]
First Last
Prev [ Day | 3-Days | 7-Days ] Next
First Last

Start Time:     :
End Time:     :     
Time (in GMT) :00 :50 :40 :30 :20 :10
Previous Next [ Day | 3-Days | 7-Days ]
First Last
Prev [ Day | 3-Days | 7-Days ] Next
First Last


123 => good data
MM => data is determined as missing
-- => data not received/configured
Back to Top Back to Top
12/20/2016 00:00 to 23:10 81.99 81.25 81.51 81.61 81.17 81.14
12/19/2016 23:00 to 22:10 81.57 81.38 81.97 81.21 81.14 80.61
12/19/2016 22:00 to 21:10 80.57 80.53 80.78 80.11 79.58 79.85
12/19/2016 21:00 to 20:10 80.06 80.09 80.19 80.15 80.30 79.79
12/19/2016 20:00 to 19:10 79.01 79.13 79.28 79.41 79.98 80.19
12/19/2016 19:00 to 18:10 80.02 80.38 80.36 79.35 79.24 79.34
12/19/2016 18:00 to 17:10 -- -- -- -- -- --
12/19/2016 17:00 to 16:10 81.63 81.89 81.29 81.27 80.95 81.10
12/19/2016 16:00 to 15:10 81.82 81.27 81.72 82.10 80.93 80.61
12/19/2016 15:00 to 14:10 81.29 81.93 83.01 82.52 82.12 82.56
12/19/2016 14:00 to 13:10 81.93 81.82 81.21 81.12 81.68 82.08
12/19/2016 13:00 to 12:10 81.65 81.44 82.56 82.88 82.56 82.50
12/19/2016 12:00 to 11:10 81.76 81.29 80.87 80.91 80.81 80.66
12/19/2016 11:00 to 10:10 79.66 81.27 81.31 81.84 80.81 82.22
12/19/2016 10:00 to 9:10 81.78 81.93 81.46 81.36 82.39 82.37
12/19/2016 09:00 to 8:10 81.84 82.71 82.29 81.63 80.62 80.76
12/19/2016 08:00 to 7:10 81.42 82.90 82.40 82.04 82.23 82.50
12/19/2016 07:00 to 6:10 84.41 84.03 83.73 84.11 84.11 83.65
12/19/2016 06:00 to 5:10 82.52 81.67 82.40 82.54 82.14 81.99
12/19/2016 05:00 to 4:10 82.37 81.80 81.21 80.57 81.29 81.31
12/19/2016 04:00 to 3:10 80.49 80.76 80.34 80.72 79.71 79.77
12/19/2016 03:00 to 2:10 79.35 78.24 78.20 78.48 77.78 79.54
12/19/2016 02:00 to 1:10 79.18 78.94 79.15 81.46 81.14 81.15
12/19/2016 01:00 to 0:10 80.26 80.47 80.13 80.04 79.37 79.22